WXM80 ListenWXM80 Stop

You find our weather info also at:

UK Metoffice

WeatherCloud

Weather Underground

Northeastern Weather Network

AWEKAS

Citizen Weather Observer Program (CWOP)

HAMweather, WeatherForYou, PWS Weather


Weather Underground History page Text

Daily Summary for October 18, 2016 Units:  English    Metric   Both
« Previous Day
Next Day »
Daily Weekly Monthly Yearly Custom
  High: Low: Average:
Temperature: 82.4 °F 62.9 °F 70.8 °F
Dew Point: 68.9 °F 60.7 °F 64.3 °F
Humidity: 95 % 59 % 81 %
Wind Speed: 5.7 mph 0.0 mph 1.5 mph
Wind Gust: 14.0 mph - -
Wind:- - SSW
Pressure: 29.91 in 29.80 in -
Precipitation: 0.00 in    
Historical Graphs
 
 
Tabular Data for October 18, 2016
Time Temperature Dew Point Pressure Wind Wind Speed Wind Gust Humidity Rainfall Rate (Hourly)
00:02 65.3 °F 62.6 °F 29.87 in Calm     91 % 0.00 in
00:07 65.3 °F 62.6 °F 29.87 in Calm   1.0 mph 91 % 0.00 in
00:12 65.3 °F 62.6 °F 29.87 in Calm     91 % 0.00 in
00:17 65.3 °F 62.6 °F 29.87 in SW 0.5 mph 1.2 mph 91 % 0.00 in
00:22 65.3 °F 62.6 °F 29.87 in WSW 0.1 mph 2.3 mph 91 % 0.00 in
00:27 65.3 °F 62.6 °F 29.87 in WSW 1.5 mph 2.3 mph 91 % 0.00 in
00:32 65.3 °F 62.6 °F 29.87 in WSW 1.1 mph 3.5 mph 91 % 0.00 in
00:38 65.3 °F 62.6 °F 29.87 in SW 3.5 mph 4.0 mph 91 % 0.00 in
00:43 65.4 °F 62.7 °F 29.87 in SW 1.9 mph 3.5 mph 91 % 0.00 in
00:48 65.6 °F 62.9 °F 29.87 in SSW 0.2 mph 2.3 mph 91 % 0.00 in
00:53 65.7 °F 63.0 °F 29.87 in SSW 1.1 mph 2.3 mph 91 % 0.00 in
00:58 65.8 °F 62.8 °F 29.87 in SSW 1.0 mph 2.3 mph 90 % 0.00 in
01:03 66.0 °F 63.0 °F 29.87 in West 1.3 mph 3.5 mph 90 % 0.00 in
01:13 66.3 °F 63.0 °F 29.86 in SW 0.9 mph 3.5 mph 89 % 0.00 in
01:18 66.5 °F 63.2 °F 29.86 in SW 1.9 mph 2.3 mph 89 % 0.00 in
01:23 66.8 °F 63.1 °F 29.86 in WSW 1.4 mph 3.5 mph 88 % 0.00 in
01:29 66.9 °F 63.2 °F 29.86 in SW 0.7 mph 2.3 mph 88 % 0.00 in
01:34 67.0 °F 63.0 °F 29.86 in SW 1.3 mph 3.5 mph 87 % 0.00 in
01:39 67.2 °F 63.2 °F 29.86 in SSW 1.6 mph 3.0 mph 87 % 0.00 in
01:44 67.3 °F 63.3 °F 29.86 in SSW 1.6 mph 3.5 mph 87 % 0.00 in
01:49 67.4 °F 63.4 °F 29.86 in SW 1.5 mph 2.3 mph 87 % 0.00 in
01:54 67.4 °F 63.4 °F 29.86 in SW 1.2 mph 3.0 mph 87 % 0.00 in
01:59 67.4 °F 63.1 °F 29.86 in WSW 0.9 mph 3.5 mph 86 % 0.00 in
02:04 67.5 °F 63.2 °F 29.86 in SW 2.3 mph 3.5 mph 86 % 0.00 in
02:09 67.5 °F 63.2 °F 29.86 in SW 0.3 mph 2.3 mph 86 % 0.00 in
02:14 67.5 °F 63.2 °F 29.87 in SW 0.5 mph 2.0 mph 86 % 0.00 in
02:20 67.5 °F 63.2 °F 29.87 in SW 0.4 mph 1.2 mph 86 % 0.00 in
02:25 67.4 °F 63.1 °F 29.87 in Calm   2.3 mph 86 % 0.00 in
02:30 67.3 °F 63.0 °F 29.87 in SW 0.7 mph 2.3 mph 86 % 0.00 in
02:35 67.3 °F 63.0 °F 29.87 in Calm   1.2 mph 86 % 0.00 in
02:40 67.2 °F 63.2 °F 29.87 in SW 1.2 mph 3.5 mph 87 % 0.00 in
02:45 67.1 °F 63.1 °F 29.87 in SW 0.2 mph 3.5 mph 87 % 0.00 in
02:50 67.0 °F 63.0 °F 29.87 in Calm   3.5 mph 87 % 0.00 in
02:55 66.9 °F 62.9 °F 29.87 in Calm     87 % 0.00 in
03:00 66.7 °F 62.7 °F 29.87 in Calm     87 % 0.00 in
03:05 66.6 °F 62.6 °F 29.87 in Calm     87 % 0.00 in
03:10 66.5 °F 62.5 °F 29.87 in Calm     87 % 0.00 in
03:15 66.4 °F 62.4 °F 29.87 in Calm     87 % 0.00 in
03:20 66.3 °F 62.3 °F 29.87 in Calm   1.0 mph 87 % 0.00 in
03:25 66.1 °F 62.1 °F 29.87 in Calm   1.0 mph 87 % 0.00 in
03:30 66.0 °F 62.0 °F 29.87 in Calm   1.0 mph 87 % 0.00 in
03:35 65.9 °F 62.2 °F 29.87 in Calm   1.0 mph 88 % 0.00 in
03:40 65.7 °F 62.1 °F 29.87 in Calm   1.0 mph 88 % 0.00 in
03:45 65.6 °F 61.9 °F 29.87 in Calm     88 % 0.00 in
03:50 65.5 °F 61.9 °F 29.87 in Calm     88 % 0.00 in
03:55 65.4 °F 61.7 °F 29.87 in Calm     88 % 0.00 in
04:01 65.2 °F 61.6 °F 29.87 in Calm     88 % 0.00 in
04:06 65.1 °F 61.5 °F 29.87 in Calm     88 % 0.00 in
04:11 65.0 °F 61.7 °F 29.87 in Calm     89 % 0.00 in
04:16 64.8 °F 61.5 °F 29.87 in Calm     89 % 0.00 in
04:21 64.7 °F 61.7 °F 29.87 in Calm     90 % 0.00 in
04:26 64.6 °F 61.6 °F 29.88 in WSW 0.2 mph 1.2 mph 90 % 0.00 in
04:31 64.5 °F 61.5 °F 29.87 in Calm   1.2 mph 90 % 0.00 in
04:36 64.3 °F 61.3 °F 29.88 in Calm     90 % 0.00 in
04:41 64.2 °F 61.2 °F 29.88 in Calm     90 % 0.00 in
04:46 64.1 °F 61.1 °F 29.88 in Calm     90 % 0.00 in
04:52 64.0 °F 61.0 °F 29.88 in Calm     90 % 0.00 in
04:57 63.9 °F 61.2 °F 29.88 in WSW 0.1 mph 1.2 mph 91 % 0.00 in
05:02 63.8 °F 61.1 °F 29.88 in Calm     91 % 0.00 in
05:07 63.7 °F 61.0 °F 29.88 in Calm     91 % 0.00 in
05:12 63.7 °F 61.3 °F 29.88 in WSW 0.1 mph 1.2 mph 92 % 0.00 in
05:17 63.6 °F 61.2 °F 29.88 in Calm     92 % 0.00 in
05:27 63.5 °F 61.1 °F 29.89 in Calm     92 % 0.00 in
05:32 63.4 °F 61.0 °F 29.89 in Calm     92 % 0.00 in
05:37 63.4 °F 61.0 °F 29.88 in Calm     92 % 0.00 in
05:43 63.3 °F 60.9 °F 29.88 in Calm   1.2 mph 92 % 0.00 in
05:48 63.2 °F 60.8 °F 29.89 in Calm     92 % 0.00 in
05:53 63.1 °F 60.7 °F 29.88 in WSW 0.9 mph 2.3 mph 92 % 0.00 in
05:58 63.1 °F 61.0 °F 29.89 in SW 0.7 mph 3.0 mph 93 % 0.00 in
06:03 63.0 °F 60.9 °F 29.89 in SW 0.5 mph 1.2 mph 93 % 0.00 in
06:08 63.0 °F 60.9 °F 29.88 in SW 0.6 mph 1.2 mph 93 % 0.00 in
06:13 63.0 °F 60.9 °F 29.89 in SW 0.2 mph 2.0 mph 93 % 0.00 in
06:18 62.9 °F 60.8 °F 29.89 in Calm   2.3 mph 93 % 0.00 in
06:23 63.0 °F 61.2 °F 29.89 in WSW 0.3 mph 3.5 mph 94 % 0.00 in
06:28 63.0 °F 61.2 °F 29.89 in Calm     94 % 0.00 in
06:34 63.0 °F 61.2 °F 29.89 in WSW 0.4 mph 1.2 mph 94 % 0.00 in
06:39 63.0 °F 61.2 °F 29.89 in WSW 0.5 mph 1.2 mph 94 % 0.00 in
06:44 63.0 °F 61.2 °F 29.89 in WSW 0.7 mph 2.3 mph 94 % 0.00 in
06:49 63.0 °F 61.2 °F 29.89 in WSW 0.4 mph 1.2 mph 94 % 0.00 in
06:54 63.0 °F 61.2 °F 29.89 in WSW 0.5 mph 1.2 mph 94 % 0.00 in
06:59 63.0 °F 61.2 °F 29.89 in WSW 1.0 mph 1.2 mph 94 % 0.00 in
07:04 63.0 °F 61.2 °F 29.89 in Calm   1.2 mph 94 % 0.00 in
07:09 62.9 °F 61.1 °F 29.89 in Calm   1.2 mph 94 % 0.00 in
07:14 62.9 °F 61.1 °F 29.89 in WSW 1.3 mph 2.3 mph 94 % 0.00 in
07:19 62.9 °F 61.1 °F 29.89 in WSW 0.2 mph 2.3 mph 94 % 0.00 in
07:25 62.9 °F 61.1 °F 29.90 in WSW 1.1 mph 3.5 mph 94 % 0.00 in
07:30 63.0 °F 61.2 °F 29.90 in South 1.4 mph 3.5 mph 94 % 0.00 in
07:35 63.0 °F 61.2 °F 29.90 in SW 0.5 mph 2.3 mph 94 % 0.00 in
07:40 63.1 °F 61.3 °F 29.90 in SSW 1.2 mph 3.5 mph 94 % 0.00 in
07:45 63.2 °F 61.4 °F 29.90 in SW 1.1 mph 3.5 mph 94 % 0.00 in
07:55 63.5 °F 62.0 °F 29.90 in SW 1.0 mph 3.5 mph 95 % 0.00 in
08:00 63.6 °F 61.8 °F 29.90 in SW 0.3 mph 2.3 mph 94 % 0.00 in
08:05 63.8 °F 62.0 °F 29.90 in SW 0.6 mph 1.2 mph 94 % 0.00 in
08:10 63.9 °F 62.1 °F 29.90 in SSE 0.2 mph 2.3 mph 94 % 0.00 in
08:16 64.1 °F 62.3 °F 29.90 in Calm   2.0 mph 94 % 0.00 in
08:21 64.3 °F 62.5 °F 29.90 in SSE 0.1 mph 1.2 mph 94 % 0.00 in
08:26 64.5 °F 62.7 °F 29.90 in Calm   2.0 mph 94 % 0.00 in
08:31 64.7 °F 62.6 °F 29.90 in Calm     93 % 0.00 in
08:36 65.0 °F 62.9 °F 29.90 in West 0.3 mph   93 % 0.00 in
08:46 65.4 °F 63.1 °F 29.91 in Calm   2.0 mph 92 % 0.00 in
08:51 65.8 °F 63.4 °F 29.91 in SSW 1.1 mph 3.5 mph 92 % 0.00 in
08:56 66.0 °F 63.3 °F 29.91 in Calm   2.0 mph 91 % 0.00 in
09:01 66.4 °F 63.7 °F 29.91 in WSW 1.9 mph 3.5 mph 91 % 0.00 in
09:06 66.8 °F 63.8 °F 29.91 in SE 0.8 mph 3.5 mph 90 % 0.00 in
09:11 67.1 °F 64.1 °F 29.91 in SE 0.4 mph 2.3 mph 90 % 0.00 in
09:16 67.5 °F 64.1 °F 29.91 in SE 0.9 mph 3.5 mph 89 % 0.00 in
09:21 68.1 °F 64.4 °F 29.91 in WSW 0.3 mph 2.3 mph 88 % 0.00 in
09:26 68.5 °F 64.5 °F 29.91 in SW 1.1 mph 3.5 mph 87 % 0.00 in
09:31 68.8 °F 64.8 °F 29.91 in SE 0.1 mph 1.2 mph 87 % 0.00 in
09:36 69.1 °F 65.1 °F 29.91 in SSE 0.9 mph 2.3 mph 87 % 0.00 in
09:41 69.5 °F 65.1 °F 29.91 in WSW 1.0 mph 2.3 mph 86 % 0.00 in
09:46 69.8 °F 65.1 °F 29.91 in SE 1.4 mph 4.6 mph 85 % 0.00 in
09:57 70.7 °F 65.6 °F 29.90 in West 1.8 mph 4.0 mph 84 % 0.00 in
10:02 71.3 °F 65.9 °F 29.90 in SW 1.8 mph 3.5 mph 83 % 0.00 in
10:07 71.9 °F 66.1 °F 29.90 in SW 1.4 mph 9.2 mph 82 % 0.00 in
10:12 72.3 °F 66.5 °F 29.90 in SE 0.6 mph 3.0 mph 82 % 0.00 in
10:17 72.9 °F 66.7 °F 29.91 in SE 1.1 mph 4.6 mph 81 % 0.00 in
10:22 73.4 °F 66.9 °F 29.90 in SE 0.3 mph 1.2 mph 80 % 0.00 in
10:27 73.8 °F 67.2 °F 29.90 in WSW 1.4 mph 5.8 mph 80 % 0.00 in
10:32 74.2 °F 66.9 °F 29.90 in SE 0.2 mph 1.2 mph 78 % 0.00 in
10:37 74.4 °F 67.1 °F 29.90 in SSW 1.1 mph 5.8 mph 78 % 0.00 in
10:43 74.6 °F 66.5 °F 29.90 in SE 0.2 mph 3.5 mph 76 % 0.00 in
10:48 74.8 °F 66.7 °F 29.90 in SSW 1.0 mph 3.5 mph 76 % 0.00 in
10:53 75.0 °F 67.3 °F 29.89 in SSE 1.0 mph 3.5 mph 77 % 0.00 in
10:58 75.2 °F 67.1 °F 29.89 in SSW 3.1 mph 8.1 mph 76 % 0.00 in
11:03 75.5 °F 67.4 °F 29.89 in SW 2.4 mph 3.5 mph 76 % 0.00 in
11:08 75.8 °F 67.7 °F 29.89 in WSW 1.8 mph 5.0 mph 76 % 0.00 in
11:13 76.2 °F 67.7 °F 29.89 in SE 0.3 mph 2.3 mph 75 % 0.00 in
11:18 76.8 °F 67.5 °F 29.88 in South 3.1 mph 8.1 mph 73 % 0.00 in
11:23 77.5 °F 67.8 °F 29.89 in SSE 1.2 mph 4.6 mph 72 % 0.00 in
11:28 78.1 °F 68.3 °F 29.89 in SW 2.2 mph 6.9 mph 72 % 0.00 in
11:34 78.7 °F 68.5 °F 29.88 in SE 0.5 mph 2.3 mph 71 % 0.00 in
11:39 79.5 °F 68.4 °F 29.88 in SSE 3.0 mph 6.0 mph 69 % 0.00 in
11:44 80.0 °F 67.6 °F 29.88 in South 1.6 mph 5.8 mph 66 % 0.00 in
11:49 80.2 °F 68.2 °F 29.88 in SSW 2.4 mph 5.0 mph 67 % 0.00 in
11:54 80.3 °F 67.9 °F 29.87 in South 1.4 mph 4.0 mph 66 % 0.00 in
11:59 80.7 °F 68.7 °F 29.87 in South 3.1 mph 5.8 mph 67 % 0.00 in
12:04 80.7 °F 67.4 °F 29.87 in South 5.7 mph 11.5 mph 64 % 0.00 in
12:09 80.9 °F 68.5 °F 29.87 in SSE 1.0 mph 2.3 mph 66 % 0.00 in
12:14 81.1 °F 68.7 °F 29.87 in South 2.7 mph 3.5 mph 66 % 0.00 in
12:19 81.4 °F 67.6 °F 29.87 in South 1.5 mph 4.6 mph 63 % 0.00 in
12:25 81.6 °F 68.2 °F 29.86 in SSE 1.9 mph 4.0 mph 64 % 0.00 in
12:30 81.8 °F 68.9 °F 29.86 in SW 4.2 mph 6.9 mph 65 % 0.00 in
12:35 82.0 °F 67.7 °F 29.86 in SW 0.6 mph 3.5 mph 62 % 0.00 in
12:40 82.1 °F 68.7 °F 29.86 in WNW 1.3 mph 5.0 mph 64 % 0.00 in
12:45 82.2 °F 68.3 °F 29.86 in WSW 4.1 mph 7.0 mph 63 % 0.00 in
12:50 82.3 °F 68.0 °F 29.85 in SSW 1.0 mph 3.5 mph 62 % 0.00 in
12:55 82.4 °F 67.1 °F 29.85 in SE 1.2 mph 4.0 mph 60 % 0.00 in
13:00 82.4 °F 67.1 °F 29.85 in SE 4.0 mph 5.8 mph 60 % 0.00 in
13:05 82.1 °F 66.8 °F 29.84 in SSW 3.3 mph 5.8 mph 60 % 0.00 in
13:10 81.9 °F 66.6 °F 29.84 in ESE 1.2 mph 4.6 mph 60 % 0.00 in
13:16 81.9 °F 66.6 °F 29.84 in SSE 2.0 mph 8.0 mph 60 % 0.00 in
13:21 82.1 °F 68.3 °F 29.84 in South 2.0 mph 9.0 mph 63 % 0.00 in
13:26 82.0 °F 66.3 °F 29.84 in SSE 1.0 mph 6.0 mph 59 % 0.00 in
13:31 82.0 °F 66.7 °F 29.84 in South 5.0 mph 7.0 mph 60 % 0.00 in
13:36 82.1 °F 66.8 °F 29.84 in South 2.0 mph 8.0 mph 60 % 0.00 in
13:46 81.8 °F 66.1 °F 29.84 in South 1.0 mph 4.0 mph 59 % 0.00 in
13:51 81.6 °F 67.3 °F 29.84 in South 5.0 mph 12.0 mph 62 % 0.00 in
13:56 81.7 °F 66.9 °F 29.84 in SSW 1.0 mph 8.0 mph 61 % 0.00 in
14:01 81.8 °F 67.0 °F 29.84 in South 1.9 mph 6.0 mph 61 % 0.00 in
14:06 81.8 °F 67.5 °F 29.84 in South 3.5 mph 4.6 mph 62 % 0.00 in
14:07 81.8 °F 67.5 °F 29.84 in South 3.3 mph 4.6 mph 62 % 0.00 in
14:10 81.9 °F 67.6 °F 29.83 in SW 1.6 mph 3.5 mph 62 % 0.00 in
14:13 81.9 °F 67.1 °F 29.83 in SSW 4.8 mph 6.9 mph 61 % 0.00 in
14:18 82.0 °F 67.2 °F 29.83 in SSW 2.6 mph 10.4 mph 61 % 0.00 in
14:23 82.1 °F 67.8 °F 29.83 in SW 2.9 mph 5.8 mph 62 % 0.00 in
14:28 81.6 °F 66.4 °F 29.83 in SW 2.0 mph 5.8 mph 60 % 0.00 in
14:33 81.3 °F 66.6 °F 29.83 in South 2.3 mph 5.8 mph 61 % 0.00 in
14:37 81.1 °F 66.4 °F 29.83 in SSW 2.4 mph 4.6 mph 61 % 0.00 in
14:42 80.9 °F 66.7 °F 29.83 in SE 1.1 mph 3.5 mph 62 % 0.00 in
14:48 80.8 °F 66.6 °F 29.82 in SSW 3.9 mph 4.0 mph 62 % 0.00 in
14:53 80.5 °F 66.3 °F 29.82 in South 2.1 mph 5.8 mph 62 % 0.00 in
14:58 80.3 °F 66.1 °F 29.82 in SSW 2.2 mph 11.5 mph 62 % 0.00 in
15:03 80.0 °F 66.3 °F 29.83 in South 2.3 mph 4.6 mph 63 % 0.00 in
15:08 79.9 °F 66.2 °F 29.82 in SSE 2.7 mph 4.6 mph 63 % 0.00 in
15:13 79.8 °F 66.1 °F 29.82 in SSW 3.9 mph 6.9 mph 63 % 0.00 in
15:18 79.7 °F 66.0 °F 29.82 in SSE 3.2 mph 6.0 mph 63 % 0.00 in
15:23 79.6 °F 65.4 °F 29.81 in SSE 3.2 mph 10.4 mph 62 % 0.00 in
15:28 79.4 °F 65.2 °F 29.82 in SE 3.8 mph 8.1 mph 62 % 0.00 in
15:33 79.1 °F 65.0 °F 29.81 in SW 2.8 mph 6.0 mph 62 % 0.00 in
15:39 79.0 °F 64.9 °F 29.81 in SW 0.9 mph 5.8 mph 62 % 0.00 in
15:44 78.8 °F 64.7 °F 29.81 in SE 2.6 mph 11.5 mph 62 % 0.00 in
15:49 78.5 °F 64.4 °F 29.81 in SSW 3.8 mph 9.2 mph 62 % 0.00 in
15:54 78.2 °F 64.1 °F 29.82 in SE 3.5 mph 4.6 mph 62 % 0.00 in
15:59 77.9 °F 64.3 °F 29.81 in SSW 5.6 mph 8.1 mph 63 % 0.00 in
16:05 77.6 °F 64.0 °F 29.81 in SSW 3.9 mph 9.0 mph 63 % 0.00 in
16:10 77.5 °F 63.9 °F 29.81 in SSW 1.8 mph 6.9 mph 63 % 0.00 in
16:20 77.1 °F 64.0 °F 29.81 in South 0.7 mph 4.6 mph 64 % 0.00 in
16:25 77.0 °F 63.9 °F 29.80 in SSW 0.5 mph 3.5 mph 64 % 0.00 in
16:30 76.9 °F 64.2 °F 29.80 in SSW 2.3 mph 10.4 mph 65 % 0.00 in
16:35 76.8 °F 63.7 °F 29.80 in SSW 1.5 mph 4.6 mph 64 % 0.00 in
16:40 76.7 °F 64.0 °F 29.80 in SSE 1.9 mph 3.5 mph 65 % 0.00 in
16:45 76.6 °F 64.0 °F 29.80 in SE 2.3 mph 5.8 mph 65 % 0.00 in
16:50 76.5 °F 63.9 °F 29.80 in SSW 0.8 mph 6.9 mph 65 % 0.00 in
16:56 76.4 °F 64.2 °F 29.80 in SSW 0.6 mph 3.5 mph 66 % 0.00 in
17:01 76.2 °F 64.0 °F 29.80 in SSE 2.8 mph 3.5 mph 66 % 0.00 in
17:06 76.1 °F 64.3 °F 29.80 in WNW 0.6 mph 3.5 mph 67 % 0.00 in
17:11 75.8 °F 64.1 °F 29.80 in South 1.3 mph 3.5 mph 67 % 0.00 in
17:16 75.6 °F 64.3 °F 29.80 in SSE 1.1 mph 3.5 mph 68 % 0.00 in
17:21 75.3 °F 64.4 °F 29.80 in SSW 3.1 mph 6.9 mph 69 % 0.00 in
17:26 75.0 °F 64.1 °F 29.80 in SSW 1.8 mph 5.0 mph 69 % 0.00 in
17:31 74.6 °F 64.2 °F 29.80 in South 3.4 mph 4.6 mph 70 % 0.00 in
17:36 74.3 °F 64.3 °F 29.80 in WSW 3.9 mph 11.5 mph 71 % 0.00 in
17:41 74.0 °F 64.4 °F 29.80 in SSW 1.5 mph 4.0 mph 72 % 0.00 in
17:47 73.7 °F 64.5 °F 29.80 in SSE 2.1 mph 2.3 mph 73 % 0.00 in
17:52 73.4 °F 64.2 °F 29.80 in SSW 3.0 mph 6.0 mph 73 % 0.00 in
17:57 73.1 °F 64.3 °F 29.80 in SSW 2.7 mph 4.6 mph 74 % 0.00 in
18:02 72.8 °F 64.4 °F 29.80 in SW 4.6 mph 6.9 mph 75 % 0.00 in
18:07 72.5 °F 64.5 °F 29.80 in South 1.0 mph 3.5 mph 76 % 0.00 in
18:12 72.2 °F 64.2 °F 29.80 in SSW 2.2 mph 4.0 mph 76 % 0.00 in
18:17 71.9 °F 64.3 °F 29.80 in SSW 1.3 mph 3.5 mph 77 % 0.00 in
18:22 71.7 °F 64.5 °F 29.80 in SSW 1.9 mph 4.6 mph 78 % 0.00 in
18:27 71.5 °F 64.6 °F 29.80 in South 1.3 mph 4.6 mph 79 % 0.00 in
18:32 71.3 °F 64.4 °F 29.80 in SSW 1.9 mph 5.8 mph 79 % 0.00 in
18:37 71.1 °F 64.6 °F 29.80 in SSW 2.6 mph 4.0 mph 80 % 0.00 in
18:42 70.9 °F 64.4 °F 29.80 in SW 1.9 mph 3.5 mph 80 % 0.00 in
18:48 70.7 °F 64.6 °F 29.80 in South 2.2 mph 3.5 mph 81 % 0.00 in
18:53 70.6 °F 64.5 °F 29.81 in SSW 2.8 mph 4.6 mph 81 % 0.00 in
18:58 70.5 °F 64.7 °F 29.81 in SSW 1.7 mph 3.5 mph 82 % 0.00 in
19:03 70.3 °F 64.5 °F 29.81 in SSE 2.8 mph 4.6 mph 82 % 0.00 in
19:08 70.3 °F 64.9 °F 29.81 in SSW 3.2 mph 4.6 mph 83 % 0.00 in
19:13 70.2 °F 64.8 °F 29.81 in South 1.8 mph 4.6 mph 83 % 0.00 in
19:18 70.1 °F 64.7 °F 29.81 in South 3.0 mph 4.0 mph 83 % 0.00 in
19:23 70.0 °F 64.6 °F 29.81 in ESE 2.1 mph 4.6 mph 83 % 0.00 in
19:28 69.9 °F 64.8 °F 29.82 in SSW 3.0 mph 6.0 mph 84 % 0.00 in
19:33 69.9 °F 64.8 °F 29.82 in SW 2.2 mph 5.8 mph 84 % 0.00 in
19:39 69.8 °F 64.7 °F 29.82 in SSW 2.1 mph 14.0 mph 84 % 0.00 in
19:44 69.8 °F 64.7 °F 29.82 in SSW 2.7 mph 4.6 mph 84 % 0.00 in
19:49 69.8 °F 64.7 °F 29.82 in South 3.0 mph 5.8 mph 84 % 0.00 in
19:54 69.7 °F 64.6 °F 29.82 in South 3.2 mph 4.6 mph 84 % 0.00 in
19:59 69.7 °F 64.6 °F 29.82 in West 1.3 mph 3.5 mph 84 % 0.00 in
20:04 69.7 °F 65.0 °F 29.82 in South 1.2 mph 3.5 mph 85 % 0.00 in
20:09 69.6 °F 64.9 °F 29.82 in SSW 2.4 mph 5.8 mph 85 % 0.00 in
20:14 69.5 °F 64.8 °F 29.82 in SSW 2.6 mph 4.6 mph 85 % 0.00 in
20:19 69.5 °F 64.8 °F 29.82 in SSW 2.2 mph 3.5 mph 85 % 0.00 in
20:24 69.4 °F 65.0 °F 29.82 in South 1.5 mph 3.5 mph 86 % 0.00 in
20:30 69.3 °F 64.9 °F 29.82 in SSE 1.3 mph 3.5 mph 86 % 0.00 in
20:35 69.2 °F 64.8 °F 29.83 in SE 0.7 mph 3.5 mph 86 % 0.00 in
20:40 69.2 °F 64.8 °F 29.83 in WSW 1.6 mph 3.5 mph 86 % 0.00 in
20:45 69.1 °F 64.7 °F 29.83 in SW 0.8 mph 3.5 mph 86 % 0.00 in
20:50 69.0 °F 64.6 °F 29.84 in South 2.8 mph 6.9 mph 86 % 0.00 in
20:55 68.9 °F 64.9 °F 29.84 in South 2.3 mph 3.5 mph 87 % 0.00 in
21:00 68.8 °F 64.8 °F 29.84 in SW 0.7 mph 2.3 mph 87 % 0.00 in
21:05 68.7 °F 64.7 °F 29.84 in South 2.2 mph 3.5 mph 87 % 0.00 in
21:10 68.6 °F 64.6 °F 29.84 in South 1.2 mph 2.0 mph 87 % 0.00 in
21:15 68.6 °F 64.6 °F 29.84 in SSW 1.6 mph 3.5 mph 87 % 0.00 in
21:21 68.5 °F 64.5 °F 29.84 in SSW 2.0 mph 10.0 mph 87 % 0.00 in
21:26 68.5 °F 64.8 °F 29.85 in SSW 1.0 mph 5.0 mph 88 % 0.00 in
21:36 68.3 °F 64.6 °F 29.85 in SSW 3.0 mph 7.0 mph 88 % 0.00 in
21:41 68.3 °F 64.6 °F 29.85 in SSW 3.0 mph 8.0 mph 88 % 0.00 in
21:46 68.3 °F 64.6 °F 29.85 in SSW 1.0 mph 7.0 mph 88 % 0.00 in
21:51 68.3 °F 64.6 °F 29.84 in SSW 2.0 mph 6.0 mph 88 % 0.00 in
21:56 68.3 °F 64.9 °F 29.84 in South 2.0 mph 7.0 mph 89 % 0.00 in
22:01 68.3 °F 64.9 °F 29.84 in SSW 2.5 mph 11.5 mph 89 % 0.00 in
22:06 68.3 °F 64.9 °F 29.84 in South 3.6 mph 6.9 mph 89 % 0.00 in
22:11 68.3 °F 64.9 °F 29.83 in SSW 1.9 mph 5.8 mph 89 % 0.00 in
22:16 68.3 °F 64.9 °F 29.83 in South 4.0 mph 8.0 mph 89 % 0.00 in
22:21 68.4 °F 65.0 °F 29.83 in SSW 3.7 mph 6.9 mph 89 % 0.00 in
22:26 68.4 °F 64.7 °F 29.83 in SW 2.4 mph 4.0 mph 88 % 0.00 in
22:31 68.5 °F 64.8 °F 29.83 in SSW 5.4 mph 7.0 mph 88 % 0.00 in
22:36 68.5 °F 64.8 °F 29.83 in SSW 3.0 mph 7.0 mph 88 % 0.00 in
22:41 68.5 °F 64.8 °F 29.83 in SSW 2.7 mph 8.1 mph 88 % 0.00 in
22:47 68.5 °F 64.8 °F 29.84 in SSW 4.7 mph 10.4 mph 88 % 0.00 in
22:52 68.6 °F 64.9 °F 29.84 in SSW 5.6 mph 9.2 mph 88 % 0.00 in
22:57 68.6 °F 64.9 °F 29.84 in SE 2.4 mph 4.0 mph 88 % 0.00 in
23:02 68.6 °F 64.9 °F 29.84 in SSW 3.4 mph 9.2 mph 88 % 0.00 in
23:07 68.6 °F 64.9 °F 29.84 in WSW 1.8 mph 3.5 mph 88 % 0.00 in
23:12 68.6 °F 64.9 °F 29.84 in West 1.5 mph 3.5 mph 88 % 0.00 in
23:17 68.6 °F 64.9 °F 29.83 in SSW 3.5 mph 5.0 mph 88 % 0.00 in
23:22 68.7 °F 65.0 °F 29.83 in SSE 1.5 mph 6.9 mph 88 % 0.00 in
23:27 68.6 °F 64.9 °F 29.83 in South 1.6 mph 5.8 mph 88 % 0.00 in
23:32 68.6 °F 64.9 °F 29.83 in SSW 2.2 mph 5.8 mph 88 % 0.00 in
23:38 68.6 °F 64.9 °F 29.83 in SW 2.1 mph 8.1 mph 88 % 0.00 in
23:43 68.5 °F 64.8 °F 29.84 in SSW 4.3 mph 12.7 mph 88 % 0.00 in
23:48 68.6 °F 64.9 °F 29.84 in SW 1.6 mph 3.5 mph 88 % 0.00 in
23:53 68.6 °F 64.9 °F 29.84 in West 0.6 mph 2.0 mph 88 % 0.00 in
23:58 68.6 °F 64.9 °F 29.84 in WSW 1.0 mph 8.0 mph 88 % 0.00 in
Crab Meadow Weather
Compliments of Weather Underground - 2.75 mb

Script developed by  Jim McMurry - jmcmurry@mwt.net Adapted for the template by  Wim van der Kuil - Leuven-Template.eu

Astronomy: Venus rotates east to west.